Terminal Aerodrome Forecast
Issued by NWS Bismarck, ND

Home | Current Version | Previous Version | Text Only | Print | Product List | Glossary On
Versions: 1 2 3 4 5 6 7 8 9 10 11 12 13 14 15 16 17 18
000
FTUS43 KBIS 261700
TAFISN
TAF
KISN 261734Z 2618/2718 32007KT P6SM OVC025
     FM262100 34007KT P6SM BKN050
     FM270400 32005KT P6SM -RA BKN035 OVC050
     FM270600 34007KT 4SM -RA BR BKN020 OVC035
     FM271000 34003KT 3SM BR OVC009
     FM271600 31006KT P6SM BKN015=

USA.gov is the U.S. government's official web portal to all federal, state and local government web resources and services.